createdAt,value
2022-12-18T00:01:26.684Z,101267.97
2022-12-18T00:03:55.793Z,101271.53
2022-12-18T00:06:26.309Z,101276.91
2022-12-18T00:08:54.263Z,101282.38
2022-12-18T00:11:23.661Z,101282.00
2022-12-18T00:13:51.308Z,101288.38
2022-12-18T00:16:22.484Z,101297.53
2022-12-18T00:18:51.269Z,101302.44
2022-12-18T00:21:19.712Z,101305.41
2022-12-18T00:23:47.902Z,101307.16
2022-12-18T00:26:26.708Z,101313.38
2022-12-18T00:28:57.612Z,101311.37
2022-12-18T00:31:25.708Z,101325.03
2022-12-18T00:33:57.747Z,101321.53
2022-12-18T00:36:31.335Z,101313.34
2022-12-18T00:39:00.446Z,101322.44
2022-12-18T00:41:47.253Z,101332.78
2022-12-18T00:44:16.728Z,101332.84
2022-12-18T00:46:45.163Z,101322.91
2022-12-18T00:49:12.652Z,101329.59
2022-12-18T00:51:40.351Z,101337.34
2022-12-18T00:54:08.099Z,101349.00
2022-12-18T00:56:45.722Z,101339.66
2022-12-18T00:59:17.001Z,101348.91
2022-12-18T01:01:44.727Z,101350.78
2022-12-18T01:04:12.625Z,101353.41
2022-12-18T01:06:40.966Z,101351.28
2022-12-18T01:09:08.345Z,101355.81
2022-12-18T01:11:37.443Z,101358.87
2022-12-18T01:14:05.512Z,101367.88
2022-12-18T01:16:32.931Z,101376.75
2022-12-18T01:19:00.289Z,101371.16
2022-12-18T01:21:28.427Z,101373.22
2022-12-18T01:23:57.296Z,101380.72
2022-12-18T01:26:25.381Z,101374.31
2022-12-18T01:28:54.707Z,101378.91
2022-12-18T01:31:25.705Z,101386.37
2022-12-18T01:33:53.916Z,101391.06
2022-12-18T01:36:26.997Z,101389.87
2022-12-18T01:38:55.243Z,101394.62
2022-12-18T01:41:25.107Z,101391.44
2022-12-18T01:43:56.009Z,101392.72
2022-12-18T01:46:24.691Z,101404.47
2022-12-18T01:48:56.262Z,101402.03
2022-12-18T01:51:25.361Z,101404.19
2022-12-18T01:53:52.812Z,101399.53
2022-12-18T01:56:21.917Z,101417.50
2022-12-18T01:59:16.992Z,101409.78
2022-12-18T02:01:44.461Z,101403.09
2022-12-18T02:04:21.827Z,101410.13
2022-12-18T02:06:53.186Z,101407.38
2022-12-18T02:09:27.701Z,101410.13
2022-12-18T02:12:04.517Z,101412.69
2022-12-18T02:14:39.692Z,101416.47
2022-12-18T02:17:20.681Z,101422.28
2022-12-18T02:19:50.903Z,101423.34
2022-12-18T02:22:28.502Z,101422.16
2022-12-18T02:25:09.553Z,101425.62
2022-12-18T02:27:38.279Z,101426.53
2022-12-18T02:30:07.113Z,101436.63
2022-12-18T02:32:41.505Z,101434.75
2022-12-18T02:35:14.862Z,101443.28
2022-12-18T02:37:44.221Z,101439.53
2022-12-18T02:40:13.743Z,101441.19
2022-12-18T02:42:41.384Z,101446.97
2022-12-18T02:45:09.362Z,101443.50
2022-12-18T02:47:39.842Z,101453.13
2022-12-18T02:50:25.950Z,101450.50
2022-12-18T02:53:12.626Z,101456.94
2022-12-18T02:56:02.061Z,101453.19
2022-12-18T02:58:48.931Z,101457.03
2022-12-18T03:01:22.972Z,101452.50
2022-12-18T03:03:58.848Z,101459.06
2022-12-18T03:06:31.536Z,101469.75
2022-12-18T03:09:03.918Z,101471.41
2022-12-18T03:11:53.718Z,101481.88
2022-12-18T03:14:23.262Z,101474.88
2022-12-18T03:16:54.483Z,101475.94
2022-12-18T03:19:24.679Z,101486.00
2022-12-18T03:21:55.459Z,101488.38
2022-12-18T03:24:25.639Z,101486.66
2022-12-18T03:27:01.106Z,101490.13
2022-12-18T03:29:34.543Z,101491.37
2022-12-18T03:32:32.223Z,101498.75
2022-12-18T03:35:04.014Z,101505.63
2022-12-18T03:37:32.571Z,101510.25
2022-12-18T03:40:00.484Z,101515.56
2022-12-18T03:42:34.090Z,101512.63
2022-12-18T03:45:10.485Z,101522.34
2022-12-18T03:48:00.200Z,101526.91
2022-12-18T03:50:48.206Z,101522.06
2022-12-18T03:53:30.188Z,101524.34
2022-12-18T03:56:00.210Z,101525.41
2022-12-18T03:58:33.890Z,101532.72
2022-12-18T04:01:07.161Z,101528.87
2022-12-18T04:03:36.636Z,101524.38
2022-12-18T04:06:04.444Z,101531.44
2022-12-18T04:08:34.320Z,101541.50
2022-12-18T04:11:02.960Z,101536.88
2022-12-18T04:13:35.416Z,101541.00
2022-12-18T04:16:03.172Z,101542.91
2022-12-18T04:18:31.096Z,101536.88
2022-12-18T04:21:00.502Z,101536.50
2022-12-18T04:23:29.408Z,101533.31
2022-12-18T04:25:57.230Z,101540.62
2022-12-18T04:28:27.219Z,101546.16
2022-12-18T04:30:55.093Z,101551.34
2022-12-18T04:33:23.027Z,101552.75
2022-12-18T04:35:50.510Z,101553.53
2022-12-18T04:38:18.543Z,101559.94
2022-12-18T04:40:46.853Z,101556.69
2022-12-18T04:43:15.596Z,101566.91
2022-12-18T04:45:43.252Z,101567.78
2022-12-18T04:48:10.603Z,101574.56
2022-12-18T04:50:38.230Z,101584.94
2022-12-18T04:53:05.873Z,101586.19
2022-12-18T04:55:33.344Z,101590.50
2022-12-18T04:58:00.878Z,101595.72
2022-12-18T05:00:28.773Z,101597.22
2022-12-18T05:02:56.561Z,101601.38
2022-12-18T05:05:24.011Z,101596.91
2022-12-18T05:07:51.594Z,101606.28
2022-12-18T05:10:19.128Z,101607.75
2022-12-18T05:12:59.074Z,101612.41
2022-12-18T05:15:32.470Z,101603.88
2022-12-18T05:18:00.444Z,101606.53
2022-12-18T05:20:28.987Z,101603.41
2022-12-18T05:22:56.845Z,101603.16
2022-12-18T05:25:24.386Z,101610.31
2022-12-18T05:27:52.035Z,101613.69
2022-12-18T05:30:19.370Z,101616.16
2022-12-18T05:32:46.907Z,101620.97
2022-12-18T05:35:14.483Z,101616.69
2022-12-18T05:37:43.487Z,101621.09
2022-12-18T05:40:12.031Z,101624.84
2022-12-18T05:42:39.688Z,101628.19
2022-12-18T05:45:07.542Z,101628.53
2022-12-18T05:47:34.947Z,101637.84
2022-12-18T05:50:02.611Z,101633.25
2022-12-18T05:52:30.016Z,101647.22
2022-12-18T05:54:57.320Z,101643.47
2022-12-18T05:57:24.926Z,101644.13
2022-12-18T05:59:52.380Z,101646.09
2022-12-18T06:02:21.936Z,101646.47
2022-12-18T06:04:49.634Z,101652.59
2022-12-18T06:07:16.954Z,101658.62
2022-12-18T06:09:44.600Z,101654.37
2022-12-18T06:12:12.219Z,101659.47
2022-12-18T06:14:40.018Z,101660.03
2022-12-18T06:17:07.337Z,101653.78
2022-12-18T06:19:34.915Z,101661.97
2022-12-18T06:22:02.300Z,101668.41
2022-12-18T06:24:29.728Z,101680.00
2022-12-18T06:26:57.347Z,101672.19
2022-12-18T06:29:24.668Z,101680.59
2022-12-18T06:31:52.170Z,101686.06
2022-12-18T06:34:19.954Z,101690.16
2022-12-18T06:36:47.264Z,101692.56
2022-12-18T06:39:14.650Z,101693.53
2022-12-18T06:41:42.350Z,101699.88
2022-12-18T06:44:09.712Z,101710.09
2022-12-18T06:46:38.930Z,101710.88
2022-12-18T06:49:06.649Z,101710.25
2022-12-18T06:51:34.054Z,101697.34
2022-12-18T06:54:01.448Z,101706.00
2022-12-18T06:56:29.134Z,101707.31
2022-12-18T06:58:56.507Z,101708.63
2022-12-18T07:01:23.914Z,101728.44
2022-12-18T07:03:55.803Z,101726.00
2022-12-18T07:06:24.850Z,101725.59
2022-12-18T07:08:53.291Z,101723.34
2022-12-18T07:11:21.086Z,101733.69
2022-12-18T07:13:48.516Z,101734.81
2022-12-18T07:16:24.265Z,101742.78
2022-12-18T07:18:53.215Z,101749.78
2022-12-18T07:21:20.963Z,101751.81
2022-12-18T07:23:49.270Z,101749.25
2022-12-18T07:26:19.165Z,101763.16
2022-12-18T07:28:47.299Z,101762.22
2022-12-18T07:31:20.216Z,101773.81
2022-12-18T07:33:50.020Z,101770.50
2022-12-18T07:36:17.461Z,101787.53
2022-12-18T07:38:48.080Z,101782.25
2022-12-18T07:41:16.227Z,101781.59
2022-12-18T07:43:44.412Z,101785.69
2022-12-18T07:46:14.658Z,101782.91
2022-12-18T07:48:44.279Z,101786.66
2022-12-18T07:51:17.170Z,101798.53
2022-12-18T07:53:46.274Z,101794.22
2022-12-18T07:56:31.228Z,101805.50
2022-12-18T07:59:00.044Z,101806.50
2022-12-18T08:01:28.012Z,101807.94
2022-12-18T08:03:55.893Z,101815.25
2022-12-18T08:06:24.511Z,101823.25
2022-12-18T08:08:53.799Z,101826.56
2022-12-18T08:11:22.362Z,101825.84
2022-12-18T08:13:49.759Z,101826.37
2022-12-18T08:16:17.782Z,101829.59
2022-12-18T08:18:45.473Z,101833.91
2022-12-18T08:21:18.071Z,101833.75
2022-12-18T08:23:46.313Z,101838.56
2022-12-18T08:26:14.475Z,101832.25
2022-12-18T08:28:41.876Z,101832.16
2022-12-18T08:31:10.195Z,101838.81
2022-12-18T08:33:38.856Z,101835.28
2022-12-18T08:36:07.503Z,101846.47
2022-12-18T08:38:35.387Z,101842.41
2022-12-18T08:41:07.975Z,101843.63
2022-12-18T08:43:54.391Z,101852.56
2022-12-18T08:46:23.021Z,101843.34
2022-12-18T08:48:54.624Z,101838.00
2022-12-18T08:51:22.056Z,101842.94
2022-12-18T08:53:49.532Z,101846.31
2022-12-18T08:56:17.667Z,101845.59
2022-12-18T08:58:45.212Z,101849.00
2022-12-18T09:01:13.739Z,101844.84
2022-12-18T09:03:41.731Z,101862.12
2022-12-18T09:06:09.439Z,101869.72
2022-12-18T09:08:38.112Z,101862.28
2022-12-18T09:11:06.119Z,101874.81
2022-12-18T09:13:33.418Z,101870.03
2022-12-18T09:16:00.953Z,101870.44
2022-12-18T09:18:28.519Z,101870.87
2022-12-18T09:20:55.968Z,101872.53
2022-12-18T09:23:23.287Z,101870.59
2022-12-18T09:25:50.859Z,101871.63
2022-12-18T09:28:19.954Z,101867.56
2022-12-18T09:30:50.910Z,101866.06
2022-12-18T09:33:18.750Z,101867.47
2022-12-18T09:35:47.166Z,101869.50
2022-12-18T09:38:16.743Z,101866.47
2022-12-18T09:40:46.863Z,101864.28
2022-12-18T09:43:22.787Z,101858.38
2022-12-18T09:45:56.404Z,101863.28
2022-12-18T09:48:28.616Z,101863.38
2022-12-18T09:50:59.672Z,101868.72
2022-12-18T09:53:29.239Z,101863.81
2022-12-18T09:55:57.368Z,101864.84
2022-12-18T09:58:45.241Z,101860.63
2022-12-18T10:01:15.762Z,101865.84
2022-12-18T10:03:45.635Z,101861.50
2022-12-18T10:06:19.981Z,101864.44
2022-12-18T10:08:56.344Z,101862.78
2022-12-18T10:11:39.905Z,101863.44
2022-12-18T10:14:15.931Z,101866.91
2022-12-18T10:16:51.655Z,101864.16
2022-12-18T10:19:35.819Z,101863.34
2022-12-18T10:22:31.347Z,101858.94
2022-12-18T10:25:06.995Z,101859.56
2022-12-18T10:27:34.335Z,101856.34
2022-12-18T10:30:09.230Z,101850.69
2022-12-18T10:32:36.591Z,101844.16
2022-12-18T10:35:04.426Z,101853.56
2022-12-18T10:37:31.813Z,101852.06
2022-12-18T10:40:21.576Z,101848.81
2022-12-18T10:43:12.723Z,101851.63
2022-12-18T10:45:40.639Z,101860.41
2022-12-18T10:48:24.182Z,101851.84
2022-12-18T10:51:13.046Z,101859.75
2022-12-18T10:53:42.934Z,101855.81
2022-12-18T10:56:10.510Z,101859.78
2022-12-18T10:58:39.633Z,101858.94
2022-12-18T11:01:21.030Z,101859.63
2022-12-18T11:03:51.570Z,101846.50
2022-12-18T11:06:22.755Z,101850.31
2022-12-18T11:09:01.660Z,101842.19
2022-12-18T11:11:30.140Z,101830.41
2022-12-18T11:14:12.507Z,101831.34
2022-12-18T11:17:03.205Z,101833.97
2022-12-18T11:19:39.019Z,101841.78
2022-12-18T11:22:28.659Z,101838.09
2022-12-18T11:25:33.162Z,101838.19
2022-12-18T11:28:05.816Z,101829.13
2022-12-18T11:30:35.499Z,101837.78
2022-12-18T11:33:07.383Z,101829.34
2022-12-18T11:35:57.008Z,101824.75
2022-12-18T11:38:27.031Z,101820.09
2022-12-18T11:40:59.897Z,101825.94
2022-12-18T11:43:30.699Z,101818.69
2022-12-18T11:46:13.516Z,101829.91
2022-12-18T11:48:46.389Z,101821.22
2022-12-18T11:51:23.834Z,101816.59
2022-12-18T11:53:54.816Z,101817.28
2022-12-18T11:56:37.268Z,101818.50
2022-12-18T11:59:07.887Z,101815.81
2022-12-18T12:01:50.086Z,101810.84
2022-12-18T12:04:20.744Z,101806.19
2022-12-18T12:07:36.508Z,101805.38
2022-12-18T12:10:09.654Z,101802.50
2022-12-18T12:12:49.470Z,101804.72
2022-12-18T12:15:40.331Z,101808.19
2022-12-18T12:18:39.474Z,101796.25
2022-12-18T12:21:33.037Z,101804.47
2022-12-18T12:24:03.498Z,101802.63
2022-12-18T12:26:46.512Z,101792.53
2022-12-18T12:29:46.737Z,101808.84
2022-12-18T12:32:29.094Z,101803.44
2022-12-18T12:35:19.004Z,101807.88
2022-12-18T12:38:11.332Z,101803.97
2022-12-18T12:41:00.479Z,101802.78
2022-12-18T12:43:37.013Z,101803.69
2022-12-18T12:46:11.120Z,101805.09
2022-12-18T12:48:48.715Z,101809.75
2022-12-18T12:51:33.196Z,101815.12
2022-12-18T12:54:02.735Z,101815.97
2022-12-18T12:57:17.492Z,101824.91
2022-12-18T12:59:59.171Z,101836.81
2022-12-18T13:02:32.186Z,101843.16
2022-12-18T13:05:19.050Z,101844.63
2022-12-18T13:07:59.513Z,101842.50
2022-12-18T13:10:32.889Z,101835.16
2022-12-18T13:13:17.184Z,101849.72
2022-12-18T13:16:03.876Z,101837.16
2022-12-18T13:18:31.939Z,101847.25
2022-12-18T13:21:03.033Z,101848.91
2022-12-18T13:23:32.439Z,101850.66
2022-12-18T13:26:09.684Z,101851.56
2022-12-18T13:28:46.869Z,101856.84
2022-12-18T13:31:15.457Z,101851.69
2022-12-18T13:34:16.932Z,101855.84
2022-12-18T13:36:35.281Z,101858.16
2022-12-18T13:39:35.175Z,101853.31
2022-12-18T13:42:06.066Z,101851.56
2022-12-18T13:44:40.910Z,101850.09
2022-12-18T13:47:35.063Z,101853.25
2022-12-18T13:50:11.399Z,101860.84
2022-12-18T13:52:40.551Z,101864.59
2022-12-18T13:55:16.487Z,101867.59
2022-12-18T13:57:44.478Z,101863.03
2022-12-18T14:00:24.583Z,101865.91
2022-12-18T14:02:52.572Z,101867.47
2022-12-18T14:05:34.976Z,101875.28
2022-12-18T14:08:11.761Z,101869.31
2022-12-18T14:10:48.862Z,101875.25
2022-12-18T14:13:30.949Z,101876.03
2022-12-18T14:16:03.098Z,101870.69
2022-12-18T14:18:56.881Z,101878.50
2022-12-18T14:21:33.516Z,101874.00
2022-12-18T14:24:28.864Z,101874.56
2022-12-18T14:27:14.899Z,101877.84
2022-12-18T14:29:44.074Z,101886.66
2022-12-18T14:32:18.908Z,101886.81
2022-12-18T14:34:48.863Z,101883.81
2022-12-18T14:37:21.540Z,101887.03
2022-12-18T14:39:59.591Z,101886.44
2022-12-18T14:42:30.255Z,101898.53
2022-12-18T14:45:41.440Z,101908.50
2022-12-18T14:48:15.430Z,101912.28
2022-12-18T14:50:56.705Z,101910.50
2022-12-18T14:53:33.879Z,101920.75
2022-12-18T14:56:02.326Z,101921.66
2022-12-18T14:58:29.690Z,101919.41
2022-12-18T15:00:57.232Z,101925.94
2022-12-18T15:03:25.024Z,101928.50
2022-12-18T15:05:53.499Z,101929.84
2022-12-18T15:08:37.664Z,101928.22
2022-12-18T15:11:28.196Z,101933.81
2022-12-18T15:13:55.546Z,101930.78
2022-12-18T15:16:23.244Z,101943.41
2022-12-18T15:18:50.675Z,101944.72
2022-12-18T15:21:20.266Z,101946.06
2022-12-18T15:23:50.535Z,101954.38
2022-12-18T15:26:19.550Z,101956.50
2022-12-18T15:28:53.535Z,101959.50
2022-12-18T15:31:23.973Z,101966.91
2022-12-18T15:33:54.298Z,101967.53
2022-12-18T15:36:26.874Z,101975.06
2022-12-18T15:38:55.500Z,101980.38
2022-12-18T15:41:36.751Z,101986.56
2022-12-18T15:44:20.452Z,101991.72
2022-12-18T15:46:48.067Z,101995.69
2022-12-18T15:49:15.452Z,101987.41
2022-12-18T15:51:42.863Z,101988.22
2022-12-18T15:54:13.980Z,102000.38
2022-12-18T15:56:59.933Z,101997.28
2022-12-18T15:59:27.765Z,101993.94
2022-12-18T16:01:55.224Z,101999.75
2022-12-18T16:04:24.453Z,101998.56
2022-12-18T16:09:40.238Z,102014.72
2022-12-18T16:12:09.909Z,102002.44
2022-12-18T16:14:37.283Z,102013.81
2022-12-18T16:17:10.284Z,102013.63
2022-12-18T16:19:37.647Z,102023.59
2022-12-18T16:22:05.887Z,102021.72
2022-12-18T16:24:37.052Z,102028.62
2022-12-18T16:27:04.716Z,102025.00
2022-12-18T16:29:32.082Z,102026.94
2022-12-18T16:32:00.942Z,102027.75
2022-12-18T16:34:35.626Z,102029.13
2022-12-18T16:37:06.319Z,102031.22
2022-12-18T16:39:35.464Z,102038.72
2022-12-18T16:42:05.918Z,102040.00
2022-12-18T16:44:34.683Z,102040.47
2022-12-18T16:47:03.953Z,102041.38
2022-12-18T16:49:31.728Z,102053.81
2022-12-18T16:51:59.400Z,102053.41
2022-12-18T16:54:26.855Z,102056.94
2022-12-18T16:56:54.227Z,102054.84
2022-12-18T16:59:21.830Z,102048.34
2022-12-18T17:01:49.222Z,102050.06
2022-12-18T17:04:17.195Z,102050.97
2022-12-18T17:06:45.898Z,102049.38
2022-12-18T17:09:15.373Z,102037.66
2022-12-18T17:11:43.563Z,102031.53
2022-12-18T17:14:14.314Z,102034.91
2022-12-18T17:16:41.901Z,102029.75
2022-12-18T17:19:15.317Z,102029.44
2022-12-18T17:21:47.197Z,102022.31
2022-12-18T17:24:14.718Z,102027.34
2022-12-18T17:26:42.341Z,102028.50
2022-12-18T17:29:14.196Z,102039.59
2022-12-18T17:31:41.611Z,102027.16
2022-12-18T17:34:11.172Z,102037.81
2022-12-18T17:36:39.409Z,102036.34
2022-12-18T17:39:07.658Z,102035.47
2022-12-18T17:41:35.516Z,102054.50
2022-12-18T17:44:05.636Z,102054.94
2022-12-18T17:46:34.157Z,102059.16
2022-12-18T17:49:02.727Z,102060.19
2022-12-18T17:51:30.652Z,102056.72
2022-12-18T17:53:58.131Z,102058.06
2022-12-18T17:56:26.002Z,102056.09
2022-12-18T17:58:53.741Z,102050.09
2022-12-18T18:01:23.839Z,102054.09
2022-12-18T18:03:53.532Z,102048.66
2022-12-18T18:06:22.708Z,102053.25
2022-12-18T18:08:50.638Z,102046.00
2022-12-18T18:11:38.882Z,102051.00
2022-12-18T18:14:10.840Z,102056.00
2022-12-18T18:16:42.281Z,102062.28
2022-12-18T18:19:15.521Z,102055.84
2022-12-18T18:21:44.684Z,102045.44
2022-12-18T18:24:17.907Z,102056.94
2022-12-18T18:26:49.267Z,102049.28
2022-12-18T18:29:18.788Z,102058.31
2022-12-18T18:31:47.128Z,102058.31
2022-12-18T18:34:19.443Z,102062.28
2022-12-18T18:36:47.213Z,102069.56
2022-12-18T18:39:14.947Z,102076.81
2022-12-18T18:41:46.861Z,102085.53
2022-12-18T18:44:17.563Z,102089.66
2022-12-18T18:46:45.209Z,102095.63
2022-12-18T18:49:13.812Z,102088.53
2022-12-18T18:51:42.039Z,102084.06
2022-12-18T18:54:09.868Z,102082.06
2022-12-18T18:57:04.098Z,102090.41
2022-12-18T18:59:31.792Z,102086.53
2022-12-18T19:02:04.099Z,102082.97
2022-12-18T19:04:33.713Z,102080.84
2022-12-18T19:07:01.131Z,102084.94
2022-12-18T19:09:28.767Z,102083.81
2022-12-18T19:12:16.021Z,102093.97
2022-12-18T19:14:44.531Z,102096.03
2022-12-18T19:17:12.283Z,102100.09
2022-12-18T19:19:39.864Z,102104.63
2022-12-18T19:22:07.520Z,102109.84
2022-12-18T19:24:35.854Z,102111.91
2022-12-18T19:27:03.447Z,102110.00
2022-12-18T19:29:30.860Z,102114.34
2022-12-18T19:31:58.734Z,102117.47
2022-12-18T19:34:26.813Z,102121.47
2022-12-18T19:36:59.633Z,102117.47
2022-12-18T19:39:27.830Z,102126.75
2022-12-18T19:41:55.167Z,102127.09
2022-12-18T19:44:22.478Z,102128.66
2022-12-18T19:46:51.576Z,102129.91
2022-12-18T19:49:18.947Z,102136.09
2022-12-18T19:51:46.496Z,102139.31
2022-12-18T19:54:16.939Z,102140.88
2022-12-18T19:56:45.673Z,102143.19
2022-12-18T19:59:13.743Z,102148.78
2022-12-18T20:01:41.585Z,102147.66
2022-12-18T20:04:09.366Z,102146.56
2022-12-18T20:06:47.913Z,102139.84
2022-12-18T20:09:15.771Z,102143.06
2022-12-18T20:11:44.020Z,102144.31
2022-12-18T20:14:12.534Z,102147.03
2022-12-18T20:16:40.730Z,102156.06
2022-12-18T20:19:08.674Z,102150.03
2022-12-18T20:21:36.917Z,102158.06
2022-12-18T20:24:04.927Z,102154.72
2022-12-18T20:26:32.466Z,102165.19
2022-12-18T20:28:59.902Z,102179.44
2022-12-18T20:31:27.514Z,102181.44
2022-12-18T20:34:00.334Z,102175.28
2022-12-18T20:36:30.715Z,102177.25
2022-12-18T20:39:01.824Z,102169.37
2022-12-18T20:41:37.402Z,102177.59
2022-12-18T20:44:08.506Z,102173.38
2022-12-18T20:46:46.618Z,102177.84
2022-12-18T20:49:13.939Z,102173.88
2022-12-18T20:51:41.305Z,102168.72
2022-12-18T20:54:11.742Z,102176.22
2022-12-18T20:56:39.376Z,102181.75
2022-12-18T20:59:07.299Z,102176.69
2022-12-18T21:01:35.049Z,102173.03
2022-12-18T21:04:03.803Z,102180.56
2022-12-18T21:06:31.618Z,102188.12
2022-12-18T21:08:59.256Z,102178.13
2022-12-18T21:11:50.924Z,102189.91
2022-12-18T21:14:20.243Z,102192.47
2022-12-18T21:16:47.955Z,102195.19
2022-12-18T21:19:17.802Z,102193.84
2022-12-18T21:21:46.027Z,102197.13
2022-12-18T21:24:13.673Z,102195.31
2022-12-18T21:26:45.458Z,102187.13
2022-12-18T21:29:16.419Z,102185.75
2022-12-18T21:31:44.237Z,102181.28
2022-12-18T21:34:26.526Z,102183.06
2022-12-18T21:36:54.443Z,102188.97
2022-12-18T21:39:22.656Z,102191.28
2022-12-18T21:42:09.397Z,102188.53
2022-12-18T21:44:42.366Z,102168.97
2022-12-18T21:47:17.584Z,102161.31
2022-12-18T21:49:51.927Z,102167.84
2022-12-18T21:52:20.421Z,102177.62
2022-12-18T21:54:52.187Z,102174.00
2022-12-18T21:57:19.585Z,102176.59
2022-12-18T21:59:46.940Z,102185.91
2022-12-18T22:02:17.378Z,102182.87
2022-12-18T22:04:46.849Z,102173.78
2022-12-18T22:07:15.791Z,102179.31
2022-12-18T22:09:43.228Z,102171.72
2022-12-18T22:12:13.217Z,102174.25
2022-12-18T22:14:40.572Z,102174.66
2022-12-18T22:17:07.904Z,102171.56
2022-12-18T22:19:42.708Z,102164.03
2022-12-18T22:22:10.467Z,102168.53
2022-12-18T22:24:38.083Z,102170.88
2022-12-18T22:27:05.643Z,102171.38
2022-12-18T22:29:51.939Z,102169.63
2022-12-18T22:32:30.879Z,102169.41
2022-12-18T22:35:05.819Z,102170.66
2022-12-18T22:37:36.008Z,102172.56
2022-12-18T22:40:06.174Z,102171.06
2022-12-18T22:42:35.061Z,102183.50
2022-12-18T22:45:02.668Z,102182.75
2022-12-18T22:47:30.903Z,102186.22
2022-12-18T22:49:58.505Z,102179.13
2022-12-18T22:52:26.176Z,102183.47
2022-12-18T22:54:54.422Z,102183.47
2022-12-18T22:57:22.784Z,102186.56
2022-12-18T22:59:50.899Z,102186.22
2022-12-18T23:02:19.038Z,102192.56
2022-12-18T23:04:47.651Z,102185.53
2022-12-18T23:07:16.391Z,102183.50
2022-12-18T23:09:44.144Z,102188.50
2022-12-18T23:12:16.832Z,102196.28
2022-12-18T23:14:44.991Z,102194.00
2022-12-18T23:17:12.300Z,102191.97
2022-12-18T23:19:44.064Z,102188.25
2022-12-18T23:22:14.910Z,102190.69
2022-12-18T23:24:42.285Z,102196.34
2022-12-18T23:27:11.731Z,102190.56
2022-12-18T23:29:40.637Z,102194.16
2022-12-18T23:32:08.366Z,102195.03
2022-12-18T23:34:35.719Z,102188.44
2022-12-18T23:37:03.851Z,102188.44
2022-12-18T23:39:31.654Z,102187.25
2022-12-18T23:41:59.148Z,102187.50
2022-12-18T23:44:27.082Z,102190.72
2022-12-18T23:46:55.055Z,102188.69
2022-12-18T23:49:22.859Z,102186.13
2022-12-18T23:51:50.962Z,102180.50
2022-12-18T23:54:18.948Z,102182.44
2022-12-18T23:56:56.962Z,102188.69
2022-12-18T23:59:25.669Z,102182.94
